sensor_id;sensor_type;location;lat;lon;timestamp;P1;durP1;ratioP1;P2;durP2;ratioP2
3066;SDS011;1544;48.834;9.194;2024-01-27T00:01:20;5.57;;;2.50;;
3066;SDS011;1544;48.834;9.194;2024-01-27T00:03:56;2.03;;;1.83;;
3066;SDS011;1544;48.834;9.194;2024-01-27T00:06:32;6.33;;;2.60;;
3066;SDS011;1544;48.834;9.194;2024-01-27T00:09:08;4.03;;;2.63;;
3066;SDS011;1544;48.834;9.194;2024-01-27T00:11:44;5.40;;;2.60;;
3066;SDS011;1544;48.834;9.194;2024-01-27T00:14:20;2.53;;;2.20;;
3066;SDS011;1544;48.834;9.194;2024-01-27T00:16:56;4.47;;;2.87;;
3066;SDS011;1544;48.834;9.194;2024-01-27T00:19:31;6.20;;;3.00;;
3066;SDS011;1544;48.834;9.194;2024-01-27T00:22:09;7.13;;;3.43;;
3066;SDS011;1544;48.834;9.194;2024-01-27T00:24:45;4.90;;;2.53;;
3066;SDS011;1544;48.834;9.194;2024-01-27T00:27:21;4.23;;;2.40;;
3066;SDS011;1544;48.834;9.194;2024-01-27T00:29:57;3.10;;;2.23;;
3066;SDS011;1544;48.834;9.194;2024-01-27T00:32:33;4.40;;;3.10;;
3066;SDS011;1544;48.834;9.194;2024-01-27T00:35:09;2.63;;;2.43;;
3066;SDS011;1544;48.834;9.194;2024-01-27T00:37:49;3.70;;;2.40;;
3066;SDS011;1544;48.834;9.194;2024-01-27T00:40:25;7.57;;;2.17;;
3066;SDS011;1544;48.834;9.194;2024-01-27T00:43:04;1.87;;;1.77;;
3066;SDS011;1544;48.834;9.194;2024-01-27T00:45:40;4.20;;;2.23;;
3066;SDS011;1544;48.834;9.194;2024-01-27T00:48:16;4.63;;;2.33;;
3066;SDS011;1544;48.834;9.194;2024-01-27T00:50:52;2.57;;;2.33;;
3066;SDS011;1544;48.834;9.194;2024-01-27T00:53:29;4.23;;;2.53;;
3066;SDS011;1544;48.834;9.194;2024-01-27T00:56:05;4.43;;;2.10;;
3066;SDS011;1544;48.834;9.194;2024-01-27T00:58:41;2.13;;;1.93;;
3066;SDS011;1544;48.834;9.194;2024-01-27T01:01:17;3.37;;;2.30;;
3066;SDS011;1544;48.834;9.194;2024-01-27T01:03:53;4.00;;;2.40;;
3066;SDS011;1544;48.834;9.194;2024-01-27T01:06:29;4.00;;;2.60;;
3066;SDS011;1544;48.834;9.194;2024-01-27T01:09:05;5.70;;;2.00;;
3066;SDS011;1544;48.834;9.194;2024-01-27T01:11:41;2.63;;;2.07;;
3066;SDS011;1544;48.834;9.194;2024-01-27T01:14:17;2.00;;;1.80;;
3066;SDS011;1544;48.834;9.194;2024-01-27T01:16:53;2.47;;;1.70;;
3066;SDS011;1544;48.834;9.194;2024-01-27T01:19:29;3.77;;;2.17;;
3066;SDS011;1544;48.834;9.194;2024-01-27T01:22:05;3.17;;;1.80;;
3066;SDS011;1544;48.834;9.194;2024-01-27T01:24:44;2.70;;;1.73;;
3066;SDS011;1544;48.834;9.194;2024-01-27T01:27:20;1.93;;;1.77;;
3066;SDS011;1544;48.834;9.194;2024-01-27T01:29:57;2.70;;;2.10;;
3066;SDS011;1544;48.834;9.194;2024-01-27T01:32:32;3.47;;;2.10;;
3066;SDS011;1544;48.834;9.194;2024-01-27T01:35:10;3.50;;;1.70;;
3066;SDS011;1544;48.834;9.194;2024-01-27T01:37:46;2.40;;;1.90;;
3066;SDS011;1544;48.834;9.194;2024-01-27T01:40:23;2.40;;;1.80;;
3066;SDS011;1544;48.834;9.194;2024-01-27T01:42:59;8.10;;;1.70;;
3066;SDS011;1544;48.834;9.194;2024-01-27T01:45:35;2.60;;;1.70;;
3066;SDS011;1544;48.834;9.194;2024-01-27T01:48:11;3.40;;;1.80;;
3066;SDS011;1544;48.834;9.194;2024-01-27T01:50:47;6.90;;;1.83;;
3066;SDS011;1544;48.834;9.194;2024-01-27T01:53:25;1.73;;;1.63;;
3066;SDS011;1544;48.834;9.194;2024-01-27T01:56:01;1.90;;;1.50;;
3066;SDS011;1544;48.834;9.194;2024-01-27T01:58:37;4.40;;;2.00;;
3066;SDS011;1544;48.834;9.194;2024-01-27T02:01:13;2.17;;;1.70;;
3066;SDS011;1544;48.834;9.194;2024-01-27T02:03:53;1.70;;;1.30;;
3066;SDS011;1544;48.834;9.194;2024-01-27T02:06:30;2.63;;;1.57;;
3066;SDS011;1544;48.834;9.194;2024-01-27T02:09:06;1.90;;;1.40;;
3066;SDS011;1544;48.834;9.194;2024-01-27T02:11:42;9.73;;;2.30;;
3066;SDS011;1544;48.834;9.194;2024-01-27T02:14:18;3.43;;;1.53;;
3066;SDS011;1544;48.834;9.194;2024-01-27T02:16:54;4.10;;;2.10;;
3066;SDS011;1544;48.834;9.194;2024-01-27T02:19:30;4.23;;;1.70;;
3066;SDS011;1544;48.834;9.194;2024-01-27T02:22:06;6.77;;;2.37;;
3066;SDS011;1544;48.834;9.194;2024-01-27T02:24:42;5.50;;;2.10;;
3066;SDS011;1544;48.834;9.194;2024-01-27T02:27:18;3.50;;;1.80;;
3066;SDS011;1544;48.834;9.194;2024-01-27T02:29:54;2.87;;;1.83;;
3066;SDS011;1544;48.834;9.194;2024-01-27T02:32:30;3.47;;;1.53;;
3066;SDS011;1544;48.834;9.194;2024-01-27T02:35:06;1.60;;;1.50;;
3066;SDS011;1544;48.834;9.194;2024-01-27T02:37:43;2.73;;;1.70;;
3066;SDS011;1544;48.834;9.194;2024-01-27T02:40:19;3.07;;;1.93;;
3066;SDS011;1544;48.834;9.194;2024-01-27T02:42:55;4.80;;;2.50;;
3066;SDS011;1544;48.834;9.194;2024-01-27T02:45:31;5.00;;;1.90;;
3066;SDS011;1544;48.834;9.194;2024-01-27T02:48:07;3.17;;;1.50;;
3066;SDS011;1544;48.834;9.194;2024-01-27T02:50:43;3.63;;;1.70;;
3066;SDS011;1544;48.834;9.194;2024-01-27T02:53:19;3.80;;;2.23;;
3066;SDS011;1544;48.834;9.194;2024-01-27T02:55:55;4.30;;;2.40;;
3066;SDS011;1544;48.834;9.194;2024-01-27T02:58:31;5.07;;;1.67;;
3066;SDS011;1544;48.834;9.194;2024-01-27T03:01:07;2.07;;;1.90;;
3066;SDS011;1544;48.834;9.194;2024-01-27T03:03:43;2.40;;;1.80;;
3066;SDS011;1544;48.834;9.194;2024-01-27T03:06:19;2.47;;;1.97;;
3066;SDS011;1544;48.834;9.194;2024-01-27T03:08:55;2.67;;;1.83;;
3066;SDS011;1544;48.834;9.194;2024-01-27T03:11:31;3.50;;;1.90;;
3066;SDS011;1544;48.834;9.194;2024-01-27T03:14:07;4.33;;;2.03;;
3066;SDS011;1544;48.834;9.194;2024-01-27T03:16:43;4.43;;;2.17;;
3066;SDS011;1544;48.834;9.194;2024-01-27T03:19:19;3.63;;;1.70;;
3066;SDS011;1544;48.834;9.194;2024-01-27T03:21:55;2.40;;;1.63;;
3066;SDS011;1544;48.834;9.194;2024-01-27T03:24:31;3.83;;;1.80;;
3066;SDS011;1544;48.834;9.194;2024-01-27T03:27:07;3.97;;;1.60;;
3066;SDS011;1544;48.834;9.194;2024-01-27T03:29:43;2.50;;;1.73;;
3066;SDS011;1544;48.834;9.194;2024-01-27T03:32:19;3.43;;;2.07;;
3066;SDS011;1544;48.834;9.194;2024-01-27T03:34:55;3.83;;;2.20;;
3066;SDS011;1544;48.834;9.194;2024-01-27T03:37:31;5.80;;;2.10;;
3066;SDS011;1544;48.834;9.194;2024-01-27T03:40:07;3.43;;;1.60;;
3066;SDS011;1544;48.834;9.194;2024-01-27T03:42:44;3.53;;;1.60;;
3066;SDS011;1544;48.834;9.194;2024-01-27T03:45:20;1.93;;;1.70;;
3066;SDS011;1544;48.834;9.194;2024-01-27T03:47:56;2.97;;;1.70;;
3066;SDS011;1544;48.834;9.194;2024-01-27T03:50:33;4.50;;;1.90;;
3066;SDS011;1544;48.834;9.194;2024-01-27T03:53:09;3.70;;;1.80;;
3066;SDS011;1544;48.834;9.194;2024-01-27T03:55:45;2.53;;;1.97;;
3066;SDS011;1544;48.834;9.194;2024-01-27T03:58:20;3.83;;;2.40;;
3066;SDS011;1544;48.834;9.194;2024-01-27T04:00:57;3.43;;;2.40;;
3066;SDS011;1544;48.834;9.194;2024-01-27T04:03:33;2.20;;;1.90;;
3066;SDS011;1544;48.834;9.194;2024-01-27T04:06:09;2.50;;;2.03;;
3066;SDS011;1544;48.834;9.194;2024-01-27T04:08:45;4.73;;;2.17;;
3066;SDS011;1544;48.834;9.194;2024-01-27T04:11:21;4.70;;;2.60;;
3066;SDS011;1544;48.834;9.194;2024-01-27T04:13:58;4.20;;;2.20;;
3066;SDS011;1544;48.834;9.194;2024-01-27T04:16:34;3.50;;;2.10;;
3066;SDS011;1544;48.834;9.194;2024-01-27T04:19:10;3.67;;;2.27;;
3066;SDS011;1544;48.834;9.194;2024-01-27T04:21:47;4.23;;;2.07;;
3066;SDS011;1544;48.834;9.194;2024-01-27T04:24:23;3.23;;;2.40;;
3066;SDS011;1544;48.834;9.194;2024-01-27T04:26:59;5.70;;;2.43;;
3066;SDS011;1544;48.834;9.194;2024-01-27T04:29:38;4.83;;;3.33;;
3066;SDS011;1544;48.834;9.194;2024-01-27T04:32:17;6.20;;;2.70;;
3066;SDS011;1544;48.834;9.194;2024-01-27T04:34:53;3.80;;;2.23;;
3066;SDS011;1544;48.834;9.194;2024-01-27T04:37:29;6.90;;;2.43;;
3066;SDS011;1544;48.834;9.194;2024-01-27T04:40:05;4.93;;;2.60;;
3066;SDS011;1544;48.834;9.194;2024-01-27T04:42:42;3.03;;;2.70;;
3066;SDS011;1544;48.834;9.194;2024-01-27T04:45:18;3.30;;;2.60;;
3066;SDS011;1544;48.834;9.194;2024-01-27T04:47:54;3.70;;;3.00;;
3066;SDS011;1544;48.834;9.194;2024-01-27T04:50:30;4.90;;;2.33;;
3066;SDS011;1544;48.834;9.194;2024-01-27T04:53:06;4.30;;;2.50;;
3066;SDS011;1544;48.834;9.194;2024-01-27T04:55:42;6.50;;;2.10;;
3066;SDS011;1544;48.834;9.194;2024-01-27T04:58:19;4.13;;;2.00;;
3066;SDS011;1544;48.834;9.194;2024-01-27T05:00:55;2.20;;;2.07;;
3066;SDS011;1544;48.834;9.194;2024-01-27T05:03:31;3.77;;;2.40;;
3066;SDS011;1544;48.834;9.194;2024-01-27T05:06:07;14.17;;;2.40;;
3066;SDS011;1544;48.834;9.194;2024-01-27T05:08:45;4.40;;;2.10;;
3066;SDS011;1544;48.834;9.194;2024-01-27T05:11:30;6.50;;;2.93;;
3066;SDS011;1544;48.834;9.194;2024-01-27T05:14:07;6.67;;;2.37;;
3066;SDS011;1544;48.834;9.194;2024-01-27T05:16:43;7.63;;;3.17;;
3066;SDS011;1544;48.834;9.194;2024-01-27T05:19:20;5.33;;;3.00;;
3066;SDS011;1544;48.834;9.194;2024-01-27T05:21:57;7.40;;;2.40;;
3066;SDS011;1544;48.834;9.194;2024-01-27T05:24:33;4.17;;;2.47;;
3066;SDS011;1544;48.834;9.194;2024-01-27T05:27:09;5.10;;;2.50;;
3066;SDS011;1544;48.834;9.194;2024-01-27T05:29:45;5.60;;;2.43;;
3066;SDS011;1544;48.834;9.194;2024-01-27T05:32:21;4.13;;;2.50;;
3066;SDS011;1544;48.834;9.194;2024-01-27T05:34:57;2.87;;;2.63;;
3066;SDS011;1544;48.834;9.194;2024-01-27T05:37:33;3.07;;;2.30;;
3066;SDS011;1544;48.834;9.194;2024-01-27T05:40:09;4.47;;;2.30;;
3066;SDS011;1544;48.834;9.194;2024-01-27T05:42:46;3.17;;;2.23;;
3066;SDS011;1544;48.834;9.194;2024-01-27T05:45:21;3.70;;;1.83;;
3066;SDS011;1544;48.834;9.194;2024-01-27T05:47:58;3.67;;;2.50;;
3066;SDS011;1544;48.834;9.194;2024-01-27T05:50:34;3.83;;;2.40;;
3066;SDS011;1544;48.834;9.194;2024-01-27T05:53:11;3.10;;;2.30;;
3066;SDS011;1544;48.834;9.194;2024-01-27T05:55:47;5.37;;;2.43;;
3066;SDS011;1544;48.834;9.194;2024-01-27T05:58:22;7.13;;;2.73;;
3066;SDS011;1544;48.834;9.194;2024-01-27T06:00:58;4.77;;;2.07;;
3066;SDS011;1544;48.834;9.194;2024-01-27T06:03:35;6.27;;;2.80;;
3066;SDS011;1544;48.834;9.194;2024-01-27T06:06:11;7.33;;;2.30;;
3066;SDS011;1544;48.834;9.194;2024-01-27T06:08:47;4.60;;;2.33;;
3066;SDS011;1544;48.834;9.194;2024-01-27T06:11:24;4.80;;;2.20;;
3066;SDS011;1544;48.834;9.194;2024-01-27T06:14:00;2.33;;;2.07;;
3066;SDS011;1544;48.834;9.194;2024-01-27T06:16:36;3.80;;;2.27;;
3066;SDS011;1544;48.834;9.194;2024-01-27T06:19:12;3.53;;;2.53;;
3066;SDS011;1544;48.834;9.194;2024-01-27T06:21:48;6.40;;;2.97;;
3066;SDS011;1544;48.834;9.194;2024-01-27T06:24:25;2.60;;;2.40;;
3066;SDS011;1544;48.834;9.194;2024-01-27T06:27:01;2.67;;;2.47;;
3066;SDS011;1544;48.834;9.194;2024-01-27T06:29:37;4.17;;;2.10;;
3066;SDS011;1544;48.834;9.194;2024-01-27T06:32:13;2.80;;;2.50;;
3066;SDS011;1544;48.834;9.194;2024-01-27T06:34:50;2.70;;;2.10;;
3066;SDS011;1544;48.834;9.194;2024-01-27T06:37:26;4.10;;;2.53;;
3066;SDS011;1544;48.834;9.194;2024-01-27T06:40:02;7.63;;;3.80;;
3066;SDS011;1544;48.834;9.194;2024-01-27T06:42:39;5.43;;;2.60;;
3066;SDS011;1544;48.834;9.194;2024-01-27T06:45:15;5.43;;;2.97;;
3066;SDS011;1544;48.834;9.194;2024-01-27T06:47:51;6.93;;;3.10;;
3066;SDS011;1544;48.834;9.194;2024-01-27T06:50:27;7.57;;;3.10;;
3066;SDS011;1544;48.834;9.194;2024-01-27T06:53:04;5.23;;;2.63;;
3066;SDS011;1544;48.834;9.194;2024-01-27T06:55:40;4.27;;;2.60;;
3066;SDS011;1544;48.834;9.194;2024-01-27T06:58:18;3.10;;;2.50;;
3066;SDS011;1544;48.834;9.194;2024-01-27T07:00:54;5.40;;;2.90;;
3066;SDS011;1544;48.834;9.194;2024-01-27T07:03:31;4.37;;;2.90;;
3066;SDS011;1544;48.834;9.194;2024-01-27T07:06:07;7.53;;;2.93;;
3066;SDS011;1544;48.834;9.194;2024-01-27T07:08:43;5.90;;;2.93;;
3066;SDS011;1544;48.834;9.194;2024-01-27T07:11:19;3.30;;;3.00;;
3066;SDS011;1544;48.834;9.194;2024-01-27T07:13:55;8.43;;;4.30;;
3066;SDS011;1544;48.834;9.194;2024-01-27T07:16:31;5.20;;;3.77;;
3066;SDS011;1544;48.834;9.194;2024-01-27T07:19:07;4.20;;;3.10;;
3066;SDS011;1544;48.834;9.194;2024-01-27T07:21:43;5.67;;;3.07;;
3066;SDS011;1544;48.834;9.194;2024-01-27T07:24:19;4.77;;;3.37;;
3066;SDS011;1544;48.834;9.194;2024-01-27T07:26:55;7.23;;;3.23;;
3066;SDS011;1544;48.834;9.194;2024-01-27T07:29:33;5.37;;;3.57;;
3066;SDS011;1544;48.834;9.194;2024-01-27T07:32:09;4.70;;;3.30;;
3066;SDS011;1544;48.834;9.194;2024-01-27T07:34:48;8.20;;;3.80;;
3066;SDS011;1544;48.834;9.194;2024-01-27T07:37:24;5.90;;;3.87;;
3066;SDS011;1544;48.834;9.194;2024-01-27T07:40:00;7.03;;;3.43;;
3066;SDS011;1544;48.834;9.194;2024-01-27T07:42:37;3.97;;;3.60;;
3066;SDS011;1544;48.834;9.194;2024-01-27T07:45:13;3.20;;;2.90;;
3066;SDS011;1544;48.834;9.194;2024-01-27T07:47:51;4.60;;;3.50;;
3066;SDS011;1544;48.834;9.194;2024-01-27T07:50:27;4.57;;;3.50;;
3066;SDS011;1544;48.834;9.194;2024-01-27T07:53:03;4.13;;;3.57;;
3066;SDS011;1544;48.834;9.194;2024-01-27T07:55:39;7.53;;;4.33;;
3066;SDS011;1544;48.834;9.194;2024-01-27T07:58:15;6.27;;;3.60;;
3066;SDS011;1544;48.834;9.194;2024-01-27T08:00:51;8.50;;;3.40;;
3066;SDS011;1544;48.834;9.194;2024-01-27T08:03:27;6.90;;;3.80;;
3066;SDS011;1544;48.834;9.194;2024-01-27T08:06:06;8.30;;;5.20;;
3066;SDS011;1544;48.834;9.194;2024-01-27T08:08:45;13.50;;;6.37;;
3066;SDS011;1544;48.834;9.194;2024-01-27T08:11:22;7.17;;;5.97;;
3066;SDS011;1544;48.834;9.194;2024-01-27T08:13:59;5.17;;;4.70;;
3066;SDS011;1544;48.834;9.194;2024-01-27T08:16:36;4.10;;;3.70;;
3066;SDS011;1544;48.834;9.194;2024-01-27T08:19:11;6.00;;;4.93;;
3066;SDS011;1544;48.834;9.194;2024-01-27T08:21:47;6.23;;;4.57;;
3066;SDS011;1544;48.834;9.194;2024-01-27T08:24:23;6.20;;;4.07;;
3066;SDS011;1544;48.834;9.194;2024-01-27T08:27:00;7.40;;;6.03;;
3066;SDS011;1544;48.834;9.194;2024-01-27T08:29:36;5.33;;;4.80;;
3066;SDS011;1544;48.834;9.194;2024-01-27T08:32:12;4.23;;;3.93;;
3066;SDS011;1544;48.834;9.194;2024-01-27T08:34:49;5.43;;;4.40;;
3066;SDS011;1544;48.834;9.194;2024-01-27T08:37:25;4.90;;;4.40;;
3066;SDS011;1544;48.834;9.194;2024-01-27T08:40:01;5.20;;;4.50;;
3066;SDS011;1544;48.834;9.194;2024-01-27T08:42:37;4.30;;;3.90;;
3066;SDS011;1544;48.834;9.194;2024-01-27T08:45:13;8.73;;;4.90;;
3066;SDS011;1544;48.834;9.194;2024-01-27T08:47:49;7.10;;;4.70;;
3066;SDS011;1544;48.834;9.194;2024-01-27T08:50:25;6.73;;;6.00;;
3066;SDS011;1544;48.834;9.194;2024-01-27T08:53:01;8.27;;;5.37;;
3066;SDS011;1544;48.834;9.194;2024-01-27T08:55:37;7.90;;;6.07;;
3066;SDS011;1544;48.834;9.194;2024-01-27T08:58:13;10.60;;;6.57;;
3066;SDS011;1544;48.834;9.194;2024-01-27T09:00:49;9.20;;;5.70;;
3066;SDS011;1544;48.834;9.194;2024-01-27T09:03:25;8.60;;;5.73;;
3066;SDS011;1544;48.834;9.194;2024-01-27T09:06:01;8.50;;;6.10;;
3066;SDS011;1544;48.834;9.194;2024-01-27T09:08:37;9.00;;;6.30;;
3066;SDS011;1544;48.834;9.194;2024-01-27T09:11:13;8.23;;;6.10;;
3066;SDS011;1544;48.834;9.194;2024-01-27T09:13:49;7.87;;;6.50;;
3066;SDS011;1544;48.834;9.194;2024-01-27T09:16:27;6.20;;;5.30;;
3066;SDS011;1544;48.834;9.194;2024-01-27T09:19:03;6.80;;;4.77;;
3066;SDS011;1544;48.834;9.194;2024-01-27T09:21:39;8.90;;;6.10;;
3066;SDS011;1544;48.834;9.194;2024-01-27T09:24:15;7.57;;;5.70;;
3066;SDS011;1544;48.834;9.194;2024-01-27T09:26:51;8.67;;;6.33;;
3066;SDS011;1544;48.834;9.194;2024-01-27T09:29:27;10.23;;;6.27;;
3066;SDS011;1544;48.834;9.194;2024-01-27T09:32:04;7.00;;;5.93;;
3066;SDS011;1544;48.834;9.194;2024-01-27T09:34:40;5.90;;;5.30;;
3066;SDS011;1544;48.834;9.194;2024-01-27T09:37:17;6.83;;;5.50;;
3066;SDS011;1544;48.834;9.194;2024-01-27T09:39:53;6.67;;;5.10;;
3066;SDS011;1544;48.834;9.194;2024-01-27T09:42:29;8.97;;;5.90;;
3066;SDS011;1544;48.834;9.194;2024-01-27T09:45:10;10.93;;;5.10;;
3066;SDS011;1544;48.834;9.194;2024-01-27T09:47:46;9.53;;;5.80;;
3066;SDS011;1544;48.834;9.194;2024-01-27T09:50:23;15.47;;;7.33;;
3066;SDS011;1544;48.834;9.194;2024-01-27T09:52:59;9.10;;;5.37;;
3066;SDS011;1544;48.834;9.194;2024-01-27T09:55:36;6.60;;;5.87;;
3066;SDS011;1544;48.834;9.194;2024-01-27T09:58:12;7.43;;;5.43;;
3066;SDS011;1544;48.834;9.194;2024-01-27T10:00:50;11.57;;;6.90;;
3066;SDS011;1544;48.834;9.194;2024-01-27T10:03:27;10.00;;;5.63;;
3066;SDS011;1544;48.834;9.194;2024-01-27T10:06:04;8.57;;;6.80;;
3066;SDS011;1544;48.834;9.194;2024-01-27T10:08:51;6.20;;;5.47;;
3066;SDS011;1544;48.834;9.194;2024-01-27T10:11:29;6.03;;;5.40;;
3066;SDS011;1544;48.834;9.194;2024-01-27T10:14:08;5.40;;;4.90;;
3066;SDS011;1544;48.834;9.194;2024-01-27T10:16:44;7.87;;;5.80;;
3066;SDS011;1544;48.834;9.194;2024-01-27T10:19:21;12.50;;;6.50;;
3066;SDS011;1544;48.834;9.194;2024-01-27T10:22:00;7.03;;;5.63;;
3066;SDS011;1544;48.834;9.194;2024-01-27T10:24:40;7.23;;;5.00;;
3066;SDS011;1544;48.834;9.194;2024-01-27T10:27:16;7.00;;;6.17;;
3066;SDS011;1544;48.834;9.194;2024-01-27T10:29:53;5.33;;;4.83;;
3066;SDS011;1544;48.834;9.194;2024-01-27T10:32:32;6.00;;;4.60;;
3066;SDS011;1544;48.834;9.194;2024-01-27T10:35:08;6.53;;;5.03;;
3066;SDS011;1544;48.834;9.194;2024-01-27T10:37:44;7.20;;;5.10;;
3066;SDS011;1544;48.834;9.194;2024-01-27T10:40:21;9.83;;;5.40;;
3066;SDS011;1544;48.834;9.194;2024-01-27T10:43:05;5.67;;;4.80;;
3066;SDS011;1544;48.834;9.194;2024-01-27T10:45:43;8.83;;;4.87;;
3066;SDS011;1544;48.834;9.194;2024-01-27T10:48:20;5.90;;;5.10;;
3066;SDS011;1544;48.834;9.194;2024-01-27T10:50:56;5.53;;;4.93;;
3066;SDS011;1544;48.834;9.194;2024-01-27T10:53:34;8.00;;;5.20;;
3066;SDS011;1544;48.834;9.194;2024-01-27T10:56:12;7.60;;;5.63;;
3066;SDS011;1544;48.834;9.194;2024-01-27T10:58:49;4.43;;;4.00;;
3066;SDS011;1544;48.834;9.194;2024-01-27T11:01:26;7.03;;;3.90;;
3066;SDS011;1544;48.834;9.194;2024-01-27T11:04:03;4.60;;;3.53;;
3066;SDS011;1544;48.834;9.194;2024-01-27T11:06:41;10.00;;;3.40;;
3066;SDS011;1544;48.834;9.194;2024-01-27T11:09:19;8.40;;;3.40;;
3066;SDS011;1544;48.834;9.194;2024-01-27T11:11:56;4.27;;;2.93;;
3066;SDS011;1544;48.834;9.194;2024-01-27T11:14:33;6.27;;;3.00;;
3066;SDS011;1544;48.834;9.194;2024-01-27T11:17:09;2.50;;;2.30;;
3066;SDS011;1544;48.834;9.194;2024-01-27T11:19:45;4.93;;;2.13;;
3066;SDS011;1544;48.834;9.194;2024-01-27T11:22:26;3.40;;;2.23;;
3066;SDS011;1544;48.834;9.194;2024-01-27T11:27:46;5.10;;;2.70;;
3066;SDS011;1544;48.834;9.194;2024-01-27T11:30:27;2.90;;;1.90;;
3066;SDS011;1544;48.834;9.194;2024-01-27T11:33:06;4.93;;;1.93;;
3066;SDS011;1544;48.834;9.194;2024-01-27T11:35:43;2.63;;;2.43;;
3066;SDS011;1544;48.834;9.194;2024-01-27T11:38:19;6.03;;;3.00;;
3066;SDS011;1544;48.834;9.194;2024-01-27T11:40:55;4.57;;;2.37;;
3066;SDS011;1544;48.834;9.194;2024-01-27T11:43:31;3.90;;;2.60;;
3066;SDS011;1544;48.834;9.194;2024-01-27T11:46:07;4.83;;;2.20;;
3066;SDS011;1544;48.834;9.194;2024-01-27T11:48:44;5.07;;;2.80;;
3066;SDS011;1544;48.834;9.194;2024-01-27T11:51:20;4.63;;;2.17;;
3066;SDS011;1544;48.834;9.194;2024-01-27T11:53:59;3.03;;;2.23;;
3066;SDS011;1544;48.834;9.194;2024-01-27T11:56:35;4.83;;;3.43;;
3066;SDS011;1544;48.834;9.194;2024-01-27T11:59:11;3.70;;;2.73;;
3066;SDS011;1544;48.834;9.194;2024-01-27T12:01:47;7.20;;;3.00;;
3066;SDS011;1544;48.834;9.194;2024-01-27T12:04:24;6.10;;;3.80;;
3066;SDS011;1544;48.834;9.194;2024-01-27T12:07:00;5.20;;;2.73;;
3066;SDS011;1544;48.834;9.194;2024-01-27T12:09:36;6.77;;;3.47;;
3066;SDS011;1544;48.834;9.194;2024-01-27T12:12:13;9.13;;;3.33;;
3066;SDS011;1544;48.834;9.194;2024-01-27T12:14:50;4.47;;;2.87;;
3066;SDS011;1544;48.834;9.194;2024-01-27T12:17:27;11.40;;;3.90;;
3066;SDS011;1544;48.834;9.194;2024-01-27T12:20:04;6.33;;;3.63;;
3066;SDS011;1544;48.834;9.194;2024-01-27T12:23:04;4.87;;;3.17;;
3066;SDS011;1544;48.834;9.194;2024-01-27T12:25:42;3.63;;;3.17;;
3066;SDS011;1544;48.834;9.194;2024-01-27T12:28:18;4.23;;;2.73;;
3066;SDS011;1544;48.834;9.194;2024-01-27T12:30:55;4.33;;;2.73;;
3066;SDS011;1544;48.834;9.194;2024-01-27T12:33:31;3.77;;;2.67;;
3066;SDS011;1544;48.834;9.194;2024-01-27T12:36:07;5.00;;;3.10;;
3066;SDS011;1544;48.834;9.194;2024-01-27T12:38:46;10.27;;;4.37;;
3066;SDS011;1544;48.834;9.194;2024-01-27T12:41:41;6.47;;;3.37;;
3066;SDS011;1544;48.834;9.194;2024-01-27T12:44:17;4.47;;;3.03;;
3066;SDS011;1544;48.834;9.194;2024-01-27T12:46:53;3.73;;;2.23;;
3066;SDS011;1544;48.834;9.194;2024-01-27T12:49:29;4.17;;;3.37;;
3066;SDS011;1544;48.834;9.194;2024-01-27T12:52:05;8.53;;;3.23;;
3066;SDS011;1544;48.834;9.194;2024-01-27T12:54:42;6.87;;;3.50;;
3066;SDS011;1544;48.834;9.194;2024-01-27T12:57:19;4.37;;;2.93;;
3066;SDS011;1544;48.834;9.194;2024-01-27T12:59:55;6.10;;;2.83;;
3066;SDS011;1544;48.834;9.194;2024-01-27T13:02:31;3.50;;;2.87;;
3066;SDS011;1544;48.834;9.194;2024-01-27T13:05:07;3.30;;;3.00;;
3066;SDS011;1544;48.834;9.194;2024-01-27T13:07:44;5.90;;;2.80;;
3066;SDS011;1544;48.834;9.194;2024-01-27T13:10:20;12.80;;;3.30;;
3066;SDS011;1544;48.834;9.194;2024-01-27T13:12:56;6.60;;;3.27;;
3066;SDS011;1544;48.834;9.194;2024-01-27T13:15:34;4.50;;;2.60;;
3066;SDS011;1544;48.834;9.194;2024-01-27T13:18:10;8.13;;;2.80;;
3066;SDS011;1544;48.834;9.194;2024-01-27T13:20:47;5.27;;;2.97;;
3066;SDS011;1544;48.834;9.194;2024-01-27T13:23:23;8.57;;;2.33;;
3066;SDS011;1544;48.834;9.194;2024-01-27T13:25:59;5.60;;;2.23;;
3066;SDS011;1544;48.834;9.194;2024-01-27T13:28:52;2.80;;;2.60;;
3066;SDS011;1544;48.834;9.194;2024-01-27T13:31:28;4.93;;;2.67;;
3066;SDS011;1544;48.834;9.194;2024-01-27T13:34:04;3.07;;;2.50;;
3066;SDS011;1544;48.834;9.194;2024-01-27T13:36:41;6.63;;;2.93;;
3066;SDS011;1544;48.834;9.194;2024-01-27T13:39:17;4.07;;;2.17;;
3066;SDS011;1544;48.834;9.194;2024-01-27T13:41:54;5.17;;;2.20;;
3066;SDS011;1544;48.834;9.194;2024-01-27T13:44:30;5.37;;;2.20;;
3066;SDS011;1544;48.834;9.194;2024-01-27T13:47:10;3.77;;;2.47;;
3066;SDS011;1544;48.834;9.194;2024-01-27T13:49:46;6.70;;;2.90;;
3066;SDS011;1544;48.834;9.194;2024-01-27T13:52:23;7.37;;;2.43;;
3066;SDS011;1544;48.834;9.194;2024-01-27T13:54:59;5.67;;;2.53;;
3066;SDS011;1544;48.834;9.194;2024-01-27T13:57:36;6.43;;;2.60;;
3066;SDS011;1544;48.834;9.194;2024-01-27T14:00:12;5.80;;;2.83;;
3066;SDS011;1544;48.834;9.194;2024-01-27T14:02:49;3.57;;;2.53;;
3066;SDS011;1544;48.834;9.194;2024-01-27T14:05:25;4.27;;;2.80;;
3066;SDS011;1544;48.834;9.194;2024-01-27T14:08:01;2.67;;;2.43;;
3066;SDS011;1544;48.834;9.194;2024-01-27T14:10:40;3.63;;;2.13;;
3066;SDS011;1544;48.834;9.194;2024-01-27T14:13:18;3.70;;;2.27;;
3066;SDS011;1544;48.834;9.194;2024-01-27T14:15:54;5.17;;;2.33;;
3066;SDS011;1544;48.834;9.194;2024-01-27T14:18:30;3.30;;;2.47;;
3066;SDS011;1544;48.834;9.194;2024-01-27T14:21:07;4.27;;;2.00;;
3066;SDS011;1544;48.834;9.194;2024-01-27T14:23:43;2.40;;;1.83;;
3066;SDS011;1544;48.834;9.194;2024-01-27T14:26:19;4.40;;;2.53;;
3066;SDS011;1544;48.834;9.194;2024-01-27T14:28:55;2.33;;;1.67;;
3066;SDS011;1544;48.834;9.194;2024-01-27T14:31:31;3.73;;;2.00;;
3066;SDS011;1544;48.834;9.194;2024-01-27T14:34:07;3.33;;;1.90;;
3066;SDS011;1544;48.834;9.194;2024-01-27T14:36:44;2.30;;;1.70;;
3066;SDS011;1544;48.834;9.194;2024-01-27T14:39:20;3.30;;;1.80;;
3066;SDS011;1544;48.834;9.194;2024-01-27T14:41:56;7.80;;;2.27;;
3066;SDS011;1544;48.834;9.194;2024-01-27T14:44:33;4.33;;;1.80;;
3066;SDS011;1544;48.834;9.194;2024-01-27T14:47:09;1.83;;;1.50;;
3066;SDS011;1544;48.834;9.194;2024-01-27T14:49:45;2.20;;;1.50;;
3066;SDS011;1544;48.834;9.194;2024-01-27T14:52:21;3.30;;;1.50;;
3066;SDS011;1544;48.834;9.194;2024-01-27T14:54:59;1.80;;;1.40;;
3066;SDS011;1544;48.834;9.194;2024-01-27T14:57:35;5.10;;;1.50;;
3066;SDS011;1544;48.834;9.194;2024-01-27T15:00:12;3.10;;;1.30;;
3066;SDS011;1544;48.834;9.194;2024-01-27T15:02:51;1.70;;;1.30;;
3066;SDS011;1544;48.834;9.194;2024-01-27T15:05:27;3.57;;;1.60;;
3066;SDS011;1544;48.834;9.194;2024-01-27T15:08:03;2.23;;;1.60;;
3066;SDS011;1544;48.834;9.194;2024-01-27T15:10:40;3.70;;;1.80;;
3066;SDS011;1544;48.834;9.194;2024-01-27T15:13:18;4.73;;;1.70;;
3066;SDS011;1544;48.834;9.194;2024-01-27T15:15:57;3.90;;;2.17;;
3066;SDS011;1544;48.834;9.194;2024-01-27T15:18:33;2.50;;;1.73;;
3066;SDS011;1544;48.834;9.194;2024-01-27T15:21:12;2.17;;;1.93;;
3066;SDS011;1544;48.834;9.194;2024-01-27T15:23:48;3.47;;;2.23;;
3066;SDS011;1544;48.834;9.194;2024-01-27T15:26:24;3.67;;;1.73;;
3066;SDS011;1544;48.834;9.194;2024-01-27T15:29:00;3.83;;;2.70;;
3066;SDS011;1544;48.834;9.194;2024-01-27T15:31:36;6.83;;;2.40;;
3066;SDS011;1544;48.834;9.194;2024-01-27T15:34:12;2.77;;;2.10;;
3066;SDS011;1544;48.834;9.194;2024-01-27T15:36:49;6.23;;;2.43;;
3066;SDS011;1544;48.834;9.194;2024-01-27T15:39:25;4.23;;;1.80;;
3066;SDS011;1544;48.834;9.194;2024-01-27T15:42:01;5.87;;;2.30;;
3066;SDS011;1544;48.834;9.194;2024-01-27T15:44:39;2.70;;;1.70;;
3066;SDS011;1544;48.834;9.194;2024-01-27T15:47:15;3.10;;;2.00;;
3066;SDS011;1544;48.834;9.194;2024-01-27T15:49:51;4.43;;;2.80;;
3066;SDS011;1544;48.834;9.194;2024-01-27T15:52:38;2.77;;;1.90;;
3066;SDS011;1544;48.834;9.194;2024-01-27T15:55:14;4.77;;;1.73;;
3066;SDS011;1544;48.834;9.194;2024-01-27T15:57:50;7.90;;;2.27;;
3066;SDS011;1544;48.834;9.194;2024-01-27T16:00:26;2.87;;;1.77;;
3066;SDS011;1544;48.834;9.194;2024-01-27T16:03:03;2.80;;;2.40;;
3066;SDS011;1544;48.834;9.194;2024-01-27T16:05:39;5.97;;;2.73;;
3066;SDS011;1544;48.834;9.194;2024-01-27T16:08:15;3.20;;;1.63;;
3066;SDS011;1544;48.834;9.194;2024-01-27T16:10:51;3.27;;;2.07;;
3066;SDS011;1544;48.834;9.194;2024-01-27T16:13:29;3.07;;;1.83;;
3066;SDS011;1544;48.834;9.194;2024-01-27T16:16:06;2.70;;;2.50;;